sensor_id;sensor_type;location;lat;lon;timestamp;pressure;altitude;pressure_sealevel;temperature;humidity
30967;BME280;17649;51.836;8.330;2023-05-19T00:01:27;102103.09;;;8.33;100.00
30967;BME280;17649;51.836;8.330;2023-05-19T00:04:28;102098.81;;;8.35;100.00
30967;BME280;17649;51.836;8.330;2023-05-19T00:07:29;102093.66;;;8.33;100.00
30967;BME280;17649;51.836;8.330;2023-05-19T00:10:30;102098.84;;;8.30;100.00
30967;BME280;17649;51.836;8.330;2023-05-19T00:13:32;102098.81;;;8.33;100.00
30967;BME280;17649;51.836;8.330;2023-05-19T00:16:32;102089.34;;;8.32;100.00
30967;BME280;17649;51.836;8.330;2023-05-19T00:19:32;102092.84;;;8.30;100.00
30967;BME280;17649;51.836;8.330;2023-05-19T00:22:33;102084.38;;;8.25;100.00
30967;BME280;17649;51.836;8.330;2023-05-19T00:25:33;102089.59;;;8.22;100.00
30967;BME280;17649;51.836;8.330;2023-05-19T00:28:33;102084.53;;;8.19;100.00
30967;BME280;17649;51.836;8.330;2023-05-19T00:31:33;102081.31;;;8.07;100.00
30967;BME280;17649;51.836;8.330;2023-05-19T00:34:34;102083.09;;;8.05;100.00
30967;BME280;17649;51.836;8.330;2023-05-19T00:37:34;102078.03;;;7.99;100.00
30967;BME280;17649;51.836;8.330;2023-05-19T00:40:34;102081.69;;;7.91;100.00
30967;BME280;17649;51.836;8.330;2023-05-19T00:43:35;102080.69;;;7.96;100.00
30967;BME280;17649;51.836;8.330;2023-05-19T00:46:35;102073.16;;;7.87;100.00
30967;BME280;17649;51.836;8.330;2023-05-19T00:49:36;102078.22;;;7.92;100.00
30967;BME280;17649;51.836;8.330;2023-05-19T00:52:37;102084.22;;;7.92;100.00
30967;BME280;17649;51.836;8.330;2023-05-19T00:55:37;102075.78;;;7.84;100.00
30967;BME280;17649;51.836;8.330;2023-05-19T00:58:39;102078.44;;;7.81;100.00
30967;BME280;17649;51.836;8.330;2023-05-19T01:01:39;102076.88;;;7.72;100.00
30967;BME280;17649;51.836;8.330;2023-05-19T01:04:40;102076.88;;;7.74;100.00
30967;BME280;17649;51.836;8.330;2023-05-19T01:07:40;102082.88;;;7.74;100.00
30967;BME280;17649;51.836;8.330;2023-05-19T01:10:41;102076.03;;;7.72;100.00
30967;BME280;17649;51.836;8.330;2023-05-19T01:13:41;102087.34;;;7.65;100.00
30967;BME280;17649;51.836;8.330;2023-05-19T01:16:43;102081.34;;;7.64;100.00
30967;BME280;17649;51.836;8.330;2023-05-19T01:32:15;102084.28;;;7.46;100.00
30967;BME280;17649;51.836;8.330;2023-05-19T01:35:17;102084.31;;;7.44;100.00
30967;BME280;17649;51.836;8.330;2023-05-19T01:38:18;102087.75;;;7.43;100.00
30967;BME280;17649;51.836;8.330;2023-05-19T01:41:19;102087.97;;;7.33;100.00
30967;BME280;17649;51.836;8.330;2023-05-19T01:44:20;102088.94;;;7.26;100.00
30967;BME280;17649;51.836;8.330;2023-05-19T01:47:21;102083.75;;;7.27;100.00
30967;BME280;17649;51.836;8.330;2023-05-19T01:50:22;102088.88;;;7.29;100.00
30967;BME280;17649;51.836;8.330;2023-05-19T01:53:22;102087.28;;;7.23;100.00
30967;BME280;17649;51.836;8.330;2023-05-19T01:56:33;102076.22;;;7.18;100.00
30967;BME280;17649;51.836;8.330;2023-05-19T01:59:41;102080.56;;;7.16;100.00
30967;BME280;17649;51.836;8.330;2023-05-19T02:02:55;102083.28;;;7.07;100.00
30967;BME280;17649;51.836;8.330;2023-05-19T02:09:50;102085.19;;;6.94;100.00
30967;BME280;17649;51.836;8.330;2023-05-19T02:12:34;102089.44;;;6.97;100.00
30967;BME280;17649;51.836;8.330;2023-05-19T02:15:37;102079.97;;;6.99;100.00
30967;BME280;17649;51.836;8.330;2023-05-19T02:18:39;102079.06;;;7.03;100.00
30967;BME280;17649;51.836;8.330;2023-05-19T02:21:44;102073.97;;;6.98;100.00
30967;BME280;17649;51.836;8.330;2023-05-19T02:24:44;102073.09;;;6.99;100.00
30967;BME280;17649;51.836;8.330;2023-05-19T02:27:46;102071.41;;;6.98;100.00
30967;BME280;17649;51.836;8.330;2023-05-19T02:30:48;102083.47;;;6.95;100.00
30967;BME280;17649;51.836;8.330;2023-05-19T02:33:48;102075.84;;;6.90;100.00
30967;BME280;17649;51.836;8.330;2023-05-19T02:36:48;102083.59;;;6.88;100.00
30967;BME280;17649;51.836;8.330;2023-05-19T02:39:48;102087.09;;;6.84;100.00
30967;BME280;17649;51.836;8.330;2023-05-19T02:42:49;102082.22;;;6.66;100.00
30967;BME280;17649;51.836;8.330;2023-05-19T02:45:49;102079.09;;;6.46;100.00
30967;BME280;17649;51.836;8.330;2023-05-19T02:48:49;102082.44;;;6.51;100.00
30967;BME280;17649;51.836;8.330;2023-05-19T02:51:49;102078.22;;;6.47;100.00
30967;BME280;17649;51.836;8.330;2023-05-19T02:54:50;102081.56;;;6.53;100.00
30967;BME280;17649;51.836;8.330;2023-05-19T02:57:50;102074.78;;;6.48;100.00
30967;BME280;17649;51.836;8.330;2023-05-19T03:00:50;102077.41;;;6.45;100.00
30967;BME280;17649;51.836;8.330;2023-05-19T03:03:51;102078.25;;;6.45;100.00
30967;BME280;17649;51.836;8.330;2023-05-19T03:06:51;102083.47;;;6.41;100.00
30967;BME280;17649;51.836;8.330;2023-05-19T03:09:53;102078.38;;;6.36;100.00
30967;BME280;17649;51.836;8.330;2023-05-19T03:12:53;102077.66;;;6.28;100.00
30967;BME280;17649;51.836;8.330;2023-05-19T03:15:53;102079.41;;;6.24;100.00
30967;BME280;17649;51.836;8.330;2023-05-19T03:18:56;102068.06;;;6.41;100.00
30967;BME280;17649;51.836;8.330;2023-05-19T03:21:57;102070.72;;;6.33;100.00
30967;BME280;17649;51.836;8.330;2023-05-19T03:24:57;102067.19;;;6.39;100.00
30967;BME280;17649;51.836;8.330;2023-05-19T03:27:57;102070.56;;;6.44;100.00
30967;BME280;17649;51.836;8.330;2023-05-19T03:30:57;102069.81;;;6.36;100.00
30967;BME280;17649;51.836;8.330;2023-05-19T03:33:58;102073.31;;;6.32;100.00
30967;BME280;17649;51.836;8.330;2023-05-19T03:36:58;102074.03;;;6.40;100.00
30967;BME280;17649;51.836;8.330;2023-05-19T03:39:58;102069.91;;;6.31;100.00
30967;BME280;17649;51.836;8.330;2023-05-19T03:42:58;102074.13;;;6.34;100.00
30967;BME280;17649;51.836;8.330;2023-05-19T03:45:59;102075.94;;;6.28;100.00
30967;BME280;17649;51.836;8.330;2023-05-19T03:49:01;102071.50;;;6.38;100.00
30967;BME280;17649;51.836;8.330;2023-05-19T03:52:01;102078.34;;;6.38;100.00
30967;BME280;17649;51.836;8.330;2023-05-19T03:55:02;102079.97;;;6.46;100.00
30967;BME280;17649;51.836;8.330;2023-05-19T03:58:02;102075.63;;;6.48;100.00
30967;BME280;17649;51.836;8.330;2023-05-19T04:01:02;102079.03;;;6.50;100.00
30967;BME280;17649;51.836;8.330;2023-05-19T04:04:03;102085.16;;;6.43;100.00
30967;BME280;17649;51.836;8.330;2023-05-19T04:07:03;102091.09;;;6.47;100.00
30967;BME280;17649;51.836;8.330;2023-05-19T04:10:03;102085.84;;;6.53;100.00
30967;BME280;17649;51.836;8.330;2023-05-19T04:13:03;102096.78;;;6.67;100.00
30967;BME280;17649;51.836;8.330;2023-05-19T04:16:04;102093.22;;;6.76;100.00
30967;BME280;17649;51.836;8.330;2023-05-19T04:19:04;102099.78;;;6.94;100.00
30967;BME280;17649;51.836;8.330;2023-05-19T04:22:05;102095.44;;;6.97;100.00
30967;BME280;17649;51.836;8.330;2023-05-19T04:25:05;102094.34;;;7.10;100.00
30967;BME280;17649;51.836;8.330;2023-05-19T04:28:06;102095.16;;;7.14;100.00
30967;BME280;17649;51.836;8.330;2023-05-19T04:31:07;102094.44;;;7.06;100.00
30967;BME280;17649;51.836;8.330;2023-05-19T04:34:11;102097.75;;;7.12;100.00
30967;BME280;17649;51.836;8.330;2023-05-19T04:37:11;102097.47;;;7.28;100.00
30967;BME280;17649;51.836;8.330;2023-05-19T04:40:13;102107.53;;;7.41;100.00
30967;BME280;17649;51.836;8.330;2023-05-19T04:43:13;102102.06;;;7.58;100.00
30967;BME280;17649;51.836;8.330;2023-05-19T04:46:13;102100.28;;;7.63;100.00
30967;BME280;17649;51.836;8.330;2023-05-19T04:49:14;102088.03;;;7.74;100.00
30967;BME280;17649;51.836;8.330;2023-05-19T04:52:14;102096.50;;;7.80;100.00
30967;BME280;17649;51.836;8.330;2023-05-19T04:55:20;102095.34;;;7.94;100.00
30967;BME280;17649;51.836;8.330;2023-05-19T04:58:21;102091.88;;;7.95;100.00
30967;BME280;17649;51.836;8.330;2023-05-19T05:01:21;102093.44;;;8.02;100.00
30967;BME280;17649;51.836;8.330;2023-05-19T05:04:24;102094.78;;;8.22;100.00
30967;BME280;17649;51.836;8.330;2023-05-19T05:07:25;102094.53;;;8.34;100.00
30967;BME280;17649;51.836;8.330;2023-05-19T05:10:25;102082.19;;;8.48;100.00
30967;BME280;17649;51.836;8.330;2023-05-19T05:13:25;102083.59;;;8.60;100.00
30967;BME280;17649;51.836;8.330;2023-05-19T05:16:26;102083.22;;;8.75;100.00
30967;BME280;17649;51.836;8.330;2023-05-19T05:19:26;102082.09;;;8.87;100.00
30967;BME280;17649;51.836;8.330;2023-05-19T05:22:26;102078.28;;;9.02;100.00
30967;BME280;17649;51.836;8.330;2023-05-19T05:25:27;102083.88;;;9.17;100.00
30967;BME280;17649;51.836;8.330;2023-05-19T05:28:27;102074.28;;;9.24;100.00
30967;BME280;17649;51.836;8.330;2023-05-19T05:31:27;102074.53;;;9.46;100.00
30967;BME280;17649;51.836;8.330;2023-05-19T05:34:27;102073.94;;;9.67;100.00
30967;BME280;17649;51.836;8.330;2023-05-19T05:37:29;102071.19;;;9.73;100.00
30967;BME280;17649;51.836;8.330;2023-05-19T05:40:29;102068.19;;;9.87;100.00
30967;BME280;17649;51.836;8.330;2023-05-19T05:43:29;102062.16;;;10.16;100.00
30967;BME280;17649;51.836;8.330;2023-05-19T05:46:30;102066.47;;;10.45;100.00
30967;BME280;17649;51.836;8.330;2023-05-19T05:49:31;102060.97;;;10.54;100.00
30967;BME280;17649;51.836;8.330;2023-05-19T05:52:31;102052.09;;;10.63;100.00
30967;BME280;17649;51.836;8.330;2023-05-19T05:55:31;102059.91;;;10.88;100.00
30967;BME280;17649;51.836;8.330;2023-05-19T05:58:32;102056.63;;;11.08;100.00
30967;BME280;17649;51.836;8.330;2023-05-19T06:01:33;102057.78;;;11.24;100.00
30967;BME280;17649;51.836;8.330;2023-05-19T06:04:35;102053.88;;;11.37;100.00
30967;BME280;17649;51.836;8.330;2023-05-19T06:07:35;102049.22;;;11.47;100.00
30967;BME280;17649;51.836;8.330;2023-05-19T06:10:36;102050.59;;;11.55;100.00
30967;BME280;17649;51.836;8.330;2023-05-19T06:13:40;102045.63;;;11.73;100.00
30967;BME280;17649;51.836;8.330;2023-05-19T06:16:40;102047.38;;;11.72;100.00
30967;BME280;17649;51.836;8.330;2023-05-19T06:19:40;102050.34;;;11.86;100.00
30967;BME280;17649;51.836;8.330;2023-05-19T06:22:41;102044.63;;;12.00;100.00
30967;BME280;17649;51.836;8.330;2023-05-19T06:25:41;102052.53;;;12.19;100.00
30967;BME280;17649;51.836;8.330;2023-05-19T06:28:41;102049.41;;;12.33;100.00
30967;BME280;17649;51.836;8.330;2023-05-19T06:31:41;102050.75;;;12.43;100.00
30967;BME280;17649;51.836;8.330;2023-05-19T06:34:42;102050.25;;;12.55;100.00
30967;BME280;17649;51.836;8.330;2023-05-19T06:37:42;102040.38;;;12.63;100.00
30967;BME280;17649;51.836;8.330;2023-05-19T06:40:42;102035.38;;;12.79;100.00
30967;BME280;17649;51.836;8.330;2023-05-19T06:43:42;102034.19;;;12.88;100.00
30967;BME280;17649;51.836;8.330;2023-05-19T06:46:43;102042.09;;;12.84;100.00
30967;BME280;17649;51.836;8.330;2023-05-19T06:49:43;102030.06;;;13.02;100.00
30967;BME280;17649;51.836;8.330;2023-05-19T06:52:43;102034.06;;;13.11;100.00
30967;BME280;17649;51.836;8.330;2023-05-19T06:55:45;102030.94;;;13.23;100.00
30967;BME280;17649;51.836;8.330;2023-05-19T06:58:49;102024.56;;;13.30;100.00
30967;BME280;17649;51.836;8.330;2023-05-19T07:01:49;102022.44;;;13.38;100.00
30967;BME280;17649;51.836;8.330;2023-05-19T07:04:49;102012.16;;;13.56;100.00
30967;BME280;17649;51.836;8.330;2023-05-19T07:07:51;102015.91;;;13.69;100.00
30967;BME280;17649;51.836;8.330;2023-05-19T07:10:52;102011.66;;;13.85;100.00
30967;BME280;17649;51.836;8.330;2023-05-19T07:13:52;102009.59;;;13.92;100.00
30967;BME280;17649;51.836;8.330;2023-05-19T07:16:52;102014.84;;;14.09;100.00
30967;BME280;17649;51.836;8.330;2023-05-19T07:19:53;102012.06;;;14.14;100.00
30967;BME280;17649;51.836;8.330;2023-05-19T07:22:53;102008.91;;;14.24;100.00
30967;BME280;17649;51.836;8.330;2023-05-19T07:25:53;102001.94;;;14.42;100.00
30967;BME280;17649;51.836;8.330;2023-05-19T07:28:55;101997.25;;;14.68;100.00
30967;BME280;17649;51.836;8.330;2023-05-19T07:31:56;101993.94;;;14.81;100.00
30967;BME280;17649;51.836;8.330;2023-05-19T07:34:57;101998.06;;;14.85;100.00
30967;BME280;17649;51.836;8.330;2023-05-19T07:37:57;101991.16;;;15.02;100.00
30967;BME280;17649;51.836;8.330;2023-05-19T07:40:57;101980.41;;;15.08;100.00
30967;BME280;17649;51.836;8.330;2023-05-19T07:43:57;101986.09;;;15.32;100.00
30967;BME280;17649;51.836;8.330;2023-05-19T07:46:57;101978.50;;;15.60;100.00
30967;BME280;17649;51.836;8.330;2023-05-19T07:49:58;101980.34;;;15.74;100.00
30967;BME280;17649;51.836;8.330;2023-05-19T07:52:58;101977.41;;;15.96;100.00
30967;BME280;17649;51.836;8.330;2023-05-19T07:55:58;101970.31;;;15.98;100.00
30967;BME280;17649;51.836;8.330;2023-05-19T07:58:58;101972.72;;;16.17;100.00
30967;BME280;17649;51.836;8.330;2023-05-19T08:01:58;101960.44;;;16.03;100.00
30967;BME280;17649;51.836;8.330;2023-05-19T08:04:59;101972.81;;;16.15;100.00
30967;BME280;17649;51.836;8.330;2023-05-19T08:07:59;101966.09;;;16.11;100.00
30967;BME280;17649;51.836;8.330;2023-05-19T08:11:02;101967.03;;;16.10;100.00
30967;BME280;17649;51.836;8.330;2023-05-19T08:14:03;101964.75;;;16.04;100.00
30967;BME280;17649;51.836;8.330;2023-05-19T08:17:03;101968.94;;;16.36;100.00
30967;BME280;17649;51.836;8.330;2023-05-19T08:20:04;101951.81;;;16.91;100.00
30967;BME280;17649;51.836;8.330;2023-05-19T08:23:05;101961.75;;;17.55;100.00
30967;BME280;17649;51.836;8.330;2023-05-19T08:26:05;101956.56;;;18.09;100.00
30967;BME280;17649;51.836;8.330;2023-05-19T08:29:05;101945.03;;;18.12;100.00
30967;BME280;17649;51.836;8.330;2023-05-19T08:32:05;101945.59;;;18.17;100.00
30967;BME280;17649;51.836;8.330;2023-05-19T08:35:06;101942.16;;;18.42;97.86
30967;BME280;17649;51.836;8.330;2023-05-19T08:38:06;101937.25;;;18.50;95.30
30967;BME280;17649;51.836;8.330;2023-05-19T08:41:07;101939.97;;;18.48;95.23
30967;BME280;17649;51.836;8.330;2023-05-19T08:44:07;101920.88;;;18.59;95.03
30967;BME280;17649;51.836;8.330;2023-05-19T08:47:08;101931.31;;;18.73;91.60
30967;BME280;17649;51.836;8.330;2023-05-19T08:50:14;101923.88;;;18.93;91.67
30967;BME280;17649;51.836;8.330;2023-05-19T08:53:19;101918.94;;;18.75;90.39
30967;BME280;17649;51.836;8.330;2023-05-19T08:56:24;101920.53;;;18.65;77.72
30967;BME280;17649;51.836;8.330;2023-05-19T08:59:25;101905.63;;;18.79;100.00
30967;BME280;17649;51.836;8.330;2023-05-19T09:02:26;101909.97;;;19.03;85.03
30967;BME280;17649;51.836;8.330;2023-05-19T09:05:26;101912.34;;;19.19;77.17
30967;BME280;17649;51.836;8.330;2023-05-19T09:08:29;101912.16;;;19.46;79.59
30967;BME280;17649;51.836;8.330;2023-05-19T09:11:29;101904.13;;;19.73;64.28
30967;BME280;17649;51.836;8.330;2023-05-19T09:14:32;101908.09;;;19.55;77.95
30967;BME280;17649;51.836;8.330;2023-05-19T09:17:33;101901.78;;;19.45;84.02
30967;BME280;17649;51.836;8.330;2023-05-19T09:20:42;101899.47;;;19.53;100.00
30967;BME280;17649;51.836;8.330;2023-05-19T09:23:43;101898.91;;;19.84;73.85
30967;BME280;17649;51.836;8.330;2023-05-19T09:26:45;101894.63;;;19.83;88.76
30967;BME280;17649;51.836;8.330;2023-05-19T09:29:47;101890.94;;;19.62;67.31
30967;BME280;17649;51.836;8.330;2023-05-19T09:32:47;101902.41;;;19.48;70.52
30967;BME280;17649;51.836;8.330;2023-05-19T09:35:47;101893.13;;;20.03;70.96
30967;BME280;17649;51.836;8.330;2023-05-19T09:38:47;101891.81;;;19.98;62.37
30967;BME280;17649;51.836;8.330;2023-05-19T09:41:54;101883.69;;;20.01;86.16
30967;BME280;17649;51.836;8.330;2023-05-19T09:45:01;101882.03;;;20.00;73.29
30967;BME280;17649;51.836;8.330;2023-05-19T09:48:04;101879.63;;;20.08;67.27
30967;BME280;17649;51.836;8.330;2023-05-19T09:51:06;101875.94;;;19.75;82.04
30967;BME280;17649;51.836;8.330;2023-05-19T09:54:06;101869.91;;;19.86;87.58
30967;BME280;17649;51.836;8.330;2023-05-19T09:57:09;101873.44;;;19.74;68.84
30967;BME280;17649;51.836;8.330;2023-05-19T10:00:09;101880.72;;;20.05;58.59
30967;BME280;17649;51.836;8.330;2023-05-19T10:03:22;101870.38;;;20.37;76.36
30967;BME280;17649;51.836;8.330;2023-05-19T10:06:22;101864.06;;;20.40;67.35
30967;BME280;17649;51.836;8.330;2023-05-19T10:09:24;101868.47;;;20.28;58.60
30967;BME280;17649;51.836;8.330;2023-05-19T10:12:24;101857.34;;;20.36;64.41
30967;BME280;17649;51.836;8.330;2023-05-19T10:15:25;101860.59;;;20.28;72.62
30967;BME280;17649;51.836;8.330;2023-05-19T10:18:25;101864.47;;;20.00;71.44
30967;BME280;17649;51.836;8.330;2023-05-19T10:21:29;101846.25;;;20.32;72.76
30967;BME280;17649;51.836;8.330;2023-05-19T10:24:29;101850.81;;;20.52;78.17
30967;BME280;17649;51.836;8.330;2023-05-19T10:27:30;101847.91;;;20.33;69.48
30967;BME280;17649;51.836;8.330;2023-05-19T10:30:32;101845.19;;;20.91;63.91
30967;BME280;17649;51.836;8.330;2023-05-19T10:36:43;101837.94;;;21.69;51.46
30967;BME280;17649;51.836;8.330;2023-05-19T10:39:49;101832.22;;;21.64;50.88
30967;BME280;17649;51.836;8.330;2023-05-19T10:45:56;101837.34;;;21.87;62.44
30967;BME280;17649;51.836;8.330;2023-05-19T10:48:56;101838.53;;;21.94;52.65
30967;BME280;17649;51.836;8.330;2023-05-19T10:51:56;101834.94;;;21.74;51.08
30967;BME280;17649;51.836;8.330;2023-05-19T10:54:57;101840.13;;;22.48;58.37
30967;BME280;17649;51.836;8.330;2023-05-19T10:57:57;101829.81;;;22.45;51.21
30967;BME280;17649;51.836;8.330;2023-05-19T11:00:59;101841.00;;;22.07;56.78
30967;BME280;17649;51.836;8.330;2023-05-19T11:04:07;101835.03;;;22.66;51.36
30967;BME280;17649;51.836;8.330;2023-05-19T11:07:17;101825.91;;;23.29;53.88
30967;BME280;17649;51.836;8.330;2023-05-19T11:10:22;101824.38;;;22.37;51.21
30967;BME280;17649;51.836;8.330;2023-05-19T11:13:26;101823.47;;;21.85;48.91
30967;BME280;17649;51.836;8.330;2023-05-19T11:16:27;101821.53;;;22.19;53.60
30967;BME280;17649;51.836;8.330;2023-05-19T11:19:28;101822.81;;;23.05;49.50
30967;BME280;17649;51.836;8.330;2023-05-19T11:22:29;101827.44;;;23.41;50.24
30967;BME280;17649;51.836;8.330;2023-05-19T11:25:46;101812.34;;;24.09;48.06
30967;BME280;17649;51.836;8.330;2023-05-19T11:28:47;101799.56;;;24.97;44.85
30967;BME280;17649;51.836;8.330;2023-05-19T11:31:47;101818.72;;;24.91;42.07
30967;BME280;17649;51.836;8.330;2023-05-19T11:34:47;101808.75;;;26.60;38.06
30967;BME280;17649;51.836;8.330;2023-05-19T11:37:48;101800.31;;;27.63;36.98
30967;BME280;17649;51.836;8.330;2023-05-19T11:40:52;101788.97;;;28.89;35.01
30967;BME280;17649;51.836;8.330;2023-05-19T11:43:52;101781.63;;;30.33;35.17
30967;BME280;17649;51.836;8.330;2023-05-19T11:46:52;101784.38;;;32.17;32.01
30967;BME280;17649;51.836;8.330;2023-05-19T11:49:53;101779.94;;;31.68;29.85
30967;BME280;17649;51.836;8.330;2023-05-19T11:52:58;101781.22;;;31.23;32.88
30967;BME280;17649;51.836;8.330;2023-05-19T11:56:01;101795.50;;;29.09;33.24
30967;BME280;17649;51.836;8.330;2023-05-19T11:59:02;101799.97;;;27.18;33.95
30967;BME280;17649;51.836;8.330;2023-05-19T12:02:13;101786.03;;;27.48;36.18
30967;BME280;17649;51.836;8.330;2023-05-19T12:05:18;101778.03;;;28.44;35.10
30967;BME280;17649;51.836;8.330;2023-05-19T12:08:18;101766.31;;;31.35;33.82
30967;BME280;17649;51.836;8.330;2023-05-19T12:11:18;101761.91;;;32.66;30.81
30967;BME280;17649;51.836;8.330;2023-05-19T12:14:19;101782.25;;;29.47;31.24
30967;BME280;17649;51.836;8.330;2023-05-19T12:17:19;101776.63;;;28.09;35.89
30967;BME280;17649;51.836;8.330;2023-05-19T12:20:20;101773.59;;;28.20;33.98
30967;BME280;17649;51.836;8.330;2023-05-19T12:23:21;101767.03;;;28.87;33.97
30967;BME280;17649;51.836;8.330;2023-05-19T12:26:21;101773.91;;;29.79;33.27
30967;BME280;17649;51.836;8.330;2023-05-19T12:29:26;101767.66;;;30.02;33.02
30967;BME280;17649;51.836;8.330;2023-05-19T12:32:26;101764.09;;;30.75;32.96
30967;BME280;17649;51.836;8.330;2023-05-19T12:35:28;101754.88;;;32.52;28.87
30967;BME280;17649;51.836;8.330;2023-05-19T12:38:28;101757.44;;;33.33;27.03
30967;BME280;17649;51.836;8.330;2023-05-19T12:41:29;101756.25;;;33.09;26.57
30967;BME280;17649;51.836;8.330;2023-05-19T12:44:29;101748.38;;;33.14;27.74
30967;BME280;17649;51.836;8.330;2023-05-19T12:47:31;101745.50;;;33.09;27.99
30967;BME280;17649;51.836;8.330;2023-05-19T12:50:32;101743.94;;;32.47;26.76
30967;BME280;17649;51.836;8.330;2023-05-19T12:53:33;101732.59;;;34.03;29.22
30967;BME280;17649;51.836;8.330;2023-05-19T12:56:33;101722.97;;;33.63;26.63
30967;BME280;17649;51.836;8.330;2023-05-19T12:59:34;101725.91;;;35.45;25.56
30967;BME280;17649;51.836;8.330;2023-05-19T13:02:34;101730.00;;;36.21;24.78
30967;BME280;17649;51.836;8.330;2023-05-19T13:05:39;101729.97;;;34.35;26.89
30967;BME280;17649;51.836;8.330;2023-05-19T13:08:42;101725.44;;;35.48;26.84
30967;BME280;17649;51.836;8.330;2023-05-19T13:11:42;101715.94;;;35.82;24.58
30967;BME280;17649;51.836;8.330;2023-05-19T13:14:43;101710.53;;;36.79;24.14
30967;BME280;17649;51.836;8.330;2023-05-19T13:17:43;101708.84;;;35.08;23.75
30967;BME280;17649;51.836;8.330;2023-05-19T13:20:45;101712.75;;;35.74;25.57
30967;BME280;17649;51.836;8.330;2023-05-19T13:23:46;101720.25;;;35.04;25.39
30967;BME280;17649;51.836;8.330;2023-05-19T13:26:46;101713.31;;;36.61;23.83
30967;BME280;17649;51.836;8.330;2023-05-19T13:29:47;101720.97;;;35.97;24.41
30967;BME280;17649;51.836;8.330;2023-05-19T13:32:47;101714.38;;;36.71;24.51
30967;BME280;17649;51.836;8.330;2023-05-19T13:35:47;101708.25;;;37.53;24.09
30967;BME280;17649;51.836;8.330;2023-05-19T13:38:48;101706.53;;;36.10;25.78
30967;BME280;17649;51.836;8.330;2023-05-19T13:41:48;101709.75;;;36.90;24.38
30967;BME280;17649;51.836;8.330;2023-05-19T13:44:48;101714.56;;;33.00;25.03
30967;BME280;17649;51.836;8.330;2023-05-19T13:47:49;101710.06;;;29.92;30.99
30967;BME280;17649;51.836;8.330;2023-05-19T13:50:49;101731.56;;;27.03;33.21
30967;BME280;17649;51.836;8.330;2023-05-19T13:53:51;101716.66;;;28.38;31.78
30967;BME280;17649;51.836;8.330;2023-05-19T13:56:51;101711.06;;;31.42;29.90
30967;BME280;17649;51.836;8.330;2023-05-19T13:59:54;101700.63;;;33.95;27.94
30967;BME280;17649;51.836;8.330;2023-05-19T14:02:55;101689.69;;;36.98;23.65
30967;BME280;17649;51.836;8.330;2023-05-19T14:05:55;101692.88;;;37.30;22.07
30967;BME280;17649;51.836;8.330;2023-05-19T14:08:55;101677.88;;;38.26;22.11
30967;BME280;17649;51.836;8.330;2023-05-19T14:11:56;101678.88;;;37.80;24.45
30967;BME280;17649;51.836;8.330;2023-05-19T14:14:56;101682.69;;;33.83;24.37
30967;BME280;17649;51.836;8.330;2023-05-19T14:17:56;101695.34;;;31.67;27.97
30967;BME280;17649;51.836;8.330;2023-05-19T14:20:57;101690.72;;;28.86;30.77
30967;BME280;17649;51.836;8.330;2023-05-19T14:23:58;101706.91;;;28.22;31.74
30967;BME280;17649;51.836;8.330;2023-05-19T14:26:58;101706.13;;;26.85;33.69
30967;BME280;17649;51.836;8.330;2023-05-19T14:29:58;101691.31;;;28.11;35.54
30967;BME280;17649;51.836;8.330;2023-05-19T14:32:58;101689.84;;;31.13;29.47
30967;BME280;17649;51.836;8.330;2023-05-19T14:35:59;101686.44;;;33.68;27.20
30967;BME280;17649;51.836;8.330;2023-05-19T14:38:59;101678.13;;;33.96;27.19
30967;BME280;17649;51.836;8.330;2023-05-19T14:42:00;101678.09;;;34.73;26.18
30967;BME280;17649;51.836;8.330;2023-05-19T14:45:00;101685.34;;;31.41;28.45
30967;BME280;17649;51.836;8.330;2023-05-19T14:48:00;101694.22;;;28.63;31.64
30967;BME280;17649;51.836;8.330;2023-05-19T14:51:01;101686.53;;;31.11;29.38
30967;BME280;17649;51.836;8.330;2023-05-19T14:54:01;101676.19;;;33.26;27.35
30967;BME280;17649;51.836;8.330;2023-05-19T14:57:01;101695.59;;;33.01;27.71
30967;BME280;17649;51.836;8.330;2023-05-19T15:00:02;101692.44;;;30.42;29.58
30967;BME280;17649;51.836;8.330;2023-05-19T15:03:02;101704.75;;;27.78;32.66
30967;BME280;17649;51.836;8.330;2023-05-19T15:06:06;101711.38;;;26.52;35.46
30967;BME280;17649;51.836;8.330;2023-05-19T15:09:07;101703.06;;;26.05;35.75
30967;BME280;17649;51.836;8.330;2023-05-19T15:12:07;101697.38;;;28.36;33.66
30967;BME280;17649;51.836;8.330;2023-05-19T15:15:07;101690.75;;;30.99;28.33
30967;BME280;17649;51.836;8.330;2023-05-19T15:18:08;101681.38;;;29.65;30.96
30967;BME280;17649;51.836;8.330;2023-05-19T15:21:08;101696.69;;;27.31;32.12
30967;BME280;17649;51.836;8.330;2023-05-19T15:24:08;101704.34;;;25.93;35.68
30967;BME280;17649;51.836;8.330;2023-05-19T15:27:08;101712.19;;;24.61;37.92
30967;BME280;17649;51.836;8.330;2023-05-19T15:30:09;101701.75;;;24.42;38.14
30967;BME280;17649;51.836;8.330;2023-05-19T15:33:11;101689.34;;;25.57;39.23
30967;BME280;17649;51.836;8.330;2023-05-19T15:36:12;101681.81;;;30.13;32.98
30967;BME280;17649;51.836;8.330;2023-05-19T15:39:15;101665.94;;;34.38;28.02
30967;BME280;17649;51.836;8.330;2023-05-19T15:42:15;101660.69;;;36.28;24.20
30967;BME280;17649;51.836;8.330;2023-05-19T15:45:15;101660.22;;;36.61;24.29
30967;BME280;17649;51.836;8.330;2023-05-19T15:48:16;101670.91;;;35.35;25.23
30967;BME280;17649;51.836;8.330;2023-05-19T15:51:16;101670.91;;;35.16;26.43
30967;BME280;17649;51.836;8.330;2023-05-19T15:54:16;101655.84;;;36.49;25.04
30967;BME280;17649;51.836;8.330;2023-05-19T15:57:16;101662.66;;;35.73;25.61
30967;BME280;17649;51.836;8.330;2023-05-19T16:00:17;101664.78;;;32.38;27.64
30967;BME280;17649;51.836;8.330;2023-05-19T16:03:17;101664.59;;;30.15;29.92
30967;BME280;17649;51.836;8.330;2023-05-19T16:06:17;101661.34;;;30.99;29.70